Waverly, NE (68462)

7:51 AM CST on February 08, 2016 (GMT -0600)
Aspen Park South West | | Change Station
CLOSE
Current Station
Personal Weather Station
Location: Waverly, NE
Elevation: 1115 ft
Nearby Weather Stations
Active Advisory: Wind Advisory

Elev 1115 ft 40.91 °N, 96.54 °W | Updated 3 seconds ago

Overcast
Overcast
29.8 °F
Feels Like 18 °F
N
16.8
Wind Variable Wind from North
Gusts 19.9 mph

Today
High -- | Low -- °F
--% Chance of Precip.
Yesterday
High -- | Low -- °F
Precip. -- in
Pressure 30.13 in
Visibility 10.0 miles
Clouds Overcast 4100 ft
Windchill 18 °F
Dew Point 15 °F
Humidity 54%
Rainfall 0.00 in
Snow Depth Not available.
7:29 AM 5:51 PM
Waning Crescent, 0% visible
METAR KLNK 081254Z 34021G36KT 10SM OVC041 M02/M08 A3009 RMK AO2 PK WND 34036/1204 SLP202 T10171078
Pressure 30.13 in
Visibility 10.0 miles
Clouds Overcast 4100 ft
Windchill 18 °F
Dew Point 15 °F
Humidity 54%
Rainfall 0.00 in
Snow Depth Not available.
7:29 AM 5:51 PM
Waning Crescent, 0% visible
METAR KLNK 081254Z 34021G36KT 10SM OVC041 M02/M08 A3009 RMK AO2 PK WND 34036/1204 SLP202 T10171078

10-Day Weather Forecast

Almanac

Astronomy

Feb. 08, 2016 Rise Set
Actual Time
Civil Twilight
Nautical Twilight
Astronomical Twilight
Moon
Length of Visible Light
Length of Day
Tomorrow will be .
, % of the Moon is Illuminated

Today's Extremes

State Highs State Lows

Community

WunderPhotos

Upload Photos

1,891,437 photos uploaded!

WunderBlog® & News

Nearby

Air Quality

  Air Quality AQ Index Pollutant
Not available.

Snow Depth

Station Depth Elevation

Earthquake Activity

City Distance Mag. Time & Date
Minimum magnitude displayed is 2.5.

Coastal Water Temperatures

Place Temperature

Stations

Nearby Weather Stations

Station Location Temp. Windchill Dew Point Humidity Wind Precip. Elev Updated Type
                   

Watches & Warnings

Wind Advisory
Issued: 4:10 AM CST Feb. 8, 2016 – National Weather Service

... Wind Advisory remains in effect until 5 PM CST this
afternoon...

* timing... strong northwest winds will continue through this
afternoon before diminishing by evening.

* Winds... northwest winds of 25 to 35 mph with gusts to 45 mph.

* Impacts... winds of this magnitude will be hazardous to
motorists... especially those with high profile vehicles. In
addition... areas of blowing snow may create hazardous travel
conditions in parts of the area.

Precautionary/preparedness actions...

A Wind Advisory means that sustained wind speeds between 30 to
39 mph or gusts between 45 to 57 mph are expected. Winds this
strong can make driving difficult... especially for high profile
vehicles. Use extra caution.